sensor_id;sensor_type;location;lat;lon;timestamp;P1;durP1;ratioP1;P2;durP2;ratioP2
69410;SDS011;56604;48.652;9.194;2022-11-15T00:01:39;2.67;;;2.37;;
69410;SDS011;56604;48.652;9.194;2022-11-15T00:04:05;2.90;;;2.60;;
69410;SDS011;56604;48.652;9.194;2022-11-15T00:06:31;2.87;;;2.30;;
69410;SDS011;56604;48.652;9.194;2022-11-15T00:08:59;3.80;;;2.30;;
69410;SDS011;56604;48.652;9.194;2022-11-15T00:11:25;4.70;;;2.47;;
69410;SDS011;56604;48.652;9.194;2022-11-15T00:13:54;2.27;;;2.17;;
69410;SDS011;56604;48.652;9.194;2022-11-15T00:16:20;5.30;;;2.10;;
69410;SDS011;56604;48.652;9.194;2022-11-15T00:18:45;2.53;;;2.43;;
69410;SDS011;56604;48.652;9.194;2022-11-15T00:21:11;2.53;;;2.43;;
69410;SDS011;56604;48.652;9.194;2022-11-15T00:23:38;3.50;;;2.80;;
69410;SDS011;56604;48.652;9.194;2022-11-15T00:26:03;2.10;;;2.00;;
69410;SDS011;56604;48.652;9.194;2022-11-15T00:28:29;4.57;;;2.67;;
69410;SDS011;56604;48.652;9.194;2022-11-15T00:31:05;2.30;;;2.20;;
69410;SDS011;56604;48.652;9.194;2022-11-15T00:33:32;3.50;;;2.30;;
69410;SDS011;56604;48.652;9.194;2022-11-15T00:36:08;2.73;;;2.53;;
69410;SDS011;56604;48.652;9.194;2022-11-15T00:38:35;2.93;;;2.73;;
69410;SDS011;56604;48.652;9.194;2022-11-15T00:41:02;3.77;;;2.60;;
69410;SDS011;56604;48.652;9.194;2022-11-15T00:43:29;6.10;;;2.37;;
69410;SDS011;56604;48.652;9.194;2022-11-15T00:45:54;8.87;;;2.60;;
69410;SDS011;56604;48.652;9.194;2022-11-15T00:48:19;3.60;;;2.40;;
69410;SDS011;56604;48.652;9.194;2022-11-15T00:50:45;2.53;;;2.33;;
69410;SDS011;56604;48.652;9.194;2022-11-15T00:53:10;2.47;;;2.37;;
69410;SDS011;56604;48.652;9.194;2022-11-15T00:55:35;5.33;;;3.07;;
69410;SDS011;56604;48.652;9.194;2022-11-15T00:58:01;5.57;;;2.83;;
69410;SDS011;56604;48.652;9.194;2022-11-15T01:00:26;2.50;;;2.40;;
69410;SDS011;56604;48.652;9.194;2022-11-15T01:02:51;2.60;;;2.40;;
69410;SDS011;56604;48.652;9.194;2022-11-15T01:05:17;2.20;;;2.10;;
69410;SDS011;56604;48.652;9.194;2022-11-15T01:07:42;2.77;;;2.60;;
69410;SDS011;56604;48.652;9.194;2022-11-15T01:10:07;5.27;;;3.00;;
69410;SDS011;56604;48.652;9.194;2022-11-15T01:12:33;3.00;;;2.23;;
69410;SDS011;56604;48.652;9.194;2022-11-15T01:14:58;3.50;;;1.90;;
69410;SDS011;56604;48.652;9.194;2022-11-15T01:17:24;4.77;;;2.30;;
69410;SDS011;56604;48.652;9.194;2022-11-15T01:19:49;4.67;;;2.70;;
69410;SDS011;56604;48.652;9.194;2022-11-15T01:22:15;4.43;;;2.30;;
69410;SDS011;56604;48.652;9.194;2022-11-15T01:24:40;2.50;;;2.13;;
69410;SDS011;56604;48.652;9.194;2022-11-15T01:27:06;3.70;;;2.43;;
69410;SDS011;56604;48.652;9.194;2022-11-15T01:29:31;2.87;;;2.67;;
69410;SDS011;56604;48.652;9.194;2022-11-15T01:31:57;2.47;;;2.37;;
69410;SDS011;56604;48.652;9.194;2022-11-15T01:34:22;2.77;;;2.37;;
69410;SDS011;56604;48.652;9.194;2022-11-15T01:36:48;3.23;;;2.40;;
69410;SDS011;56604;48.652;9.194;2022-11-15T01:39:13;4.83;;;2.77;;
69410;SDS011;56604;48.652;9.194;2022-11-15T01:41:38;2.60;;;2.47;;
69410;SDS011;56604;48.652;9.194;2022-11-15T01:47:08;2.93;;;2.63;;
69410;SDS011;56604;48.652;9.194;2022-11-15T01:49:57;3.30;;;2.60;;
69410;SDS011;56604;48.652;9.194;2022-11-15T01:52:24;2.67;;;2.47;;
69410;SDS011;56604;48.652;9.194;2022-11-15T01:54:54;5.73;;;2.40;;
69410;SDS011;56604;48.652;9.194;2022-11-15T01:57:24;2.70;;;2.50;;
69410;SDS011;56604;48.652;9.194;2022-11-15T01:59:49;2.50;;;2.40;;
69410;SDS011;56604;48.652;9.194;2022-11-15T02:02:15;5.67;;;2.30;;
69410;SDS011;56604;48.652;9.194;2022-11-15T02:04:42;4.30;;;2.57;;
69410;SDS011;56604;48.652;9.194;2022-11-15T02:07:10;2.53;;;2.33;;
69410;SDS011;56604;48.652;9.194;2022-11-15T02:09:37;2.67;;;2.47;;
69410;SDS011;56604;48.652;9.194;2022-11-15T02:12:03;4.10;;;2.50;;
69410;SDS011;56604;48.652;9.194;2022-11-15T02:14:29;2.27;;;2.07;;
69410;SDS011;56604;48.652;9.194;2022-11-15T02:34:19;3.00;;;2.47;;
69410;SDS011;56604;48.652;9.194;2022-11-15T02:39:29;3.53;;;2.60;;
69410;SDS011;56604;48.652;9.194;2022-11-15T02:42:09;2.80;;;2.30;;
69410;SDS011;56604;48.652;9.194;2022-11-15T02:44:58;2.20;;;2.10;;
69410;SDS011;56604;48.652;9.194;2022-11-15T02:47:28;3.10;;;2.47;;
69410;SDS011;56604;48.652;9.194;2022-11-15T02:50:07;4.80;;;2.50;;
69410;SDS011;56604;48.652;9.194;2022-11-15T02:52:36;2.30;;;2.20;;
69410;SDS011;56604;48.652;9.194;2022-11-15T02:55:01;2.70;;;2.57;;
69410;SDS011;56604;48.652;9.194;2022-11-15T02:59:56;9.93;;;2.47;;
69410;SDS011;56604;48.652;9.194;2022-11-15T03:05:23;2.13;;;2.03;;
69410;SDS011;56604;48.652;9.194;2022-11-15T03:13:12;3.00;;;2.67;;
69410;SDS011;56604;48.652;9.194;2022-11-15T03:16:03;2.13;;;2.00;;
69410;SDS011;56604;48.652;9.194;2022-11-15T03:18:32;6.30;;;2.73;;
69410;SDS011;56604;48.652;9.194;2022-11-15T03:21:01;4.40;;;2.70;;
69410;SDS011;56604;48.652;9.194;2022-11-15T03:23:31;4.80;;;2.63;;
69410;SDS011;56604;48.652;9.194;2022-11-15T03:25:58;2.40;;;2.30;;
69410;SDS011;56604;48.652;9.194;2022-11-15T03:28:28;4.60;;;2.20;;
69410;SDS011;56604;48.652;9.194;2022-11-15T03:31:00;2.13;;;2.00;;
69410;SDS011;56604;48.652;9.194;2022-11-15T03:33:49;3.53;;;2.07;;
69410;SDS011;56604;48.652;9.194;2022-11-15T03:36:17;2.40;;;2.30;;
69410;SDS011;56604;48.652;9.194;2022-11-15T03:38:42;2.47;;;2.27;;
69410;SDS011;56604;48.652;9.194;2022-11-15T03:41:15;2.13;;;2.03;;
69410;SDS011;56604;48.652;9.194;2022-11-15T03:43:48;2.20;;;2.10;;
69410;SDS011;56604;48.652;9.194;2022-11-15T03:49:08;2.60;;;2.40;;
69410;SDS011;56604;48.652;9.194;2022-11-15T03:51:39;2.43;;;2.17;;
69410;SDS011;56604;48.652;9.194;2022-11-15T03:54:04;5.73;;;3.00;;
69410;SDS011;56604;48.652;9.194;2022-11-15T03:56:30;2.30;;;2.20;;
69410;SDS011;56604;48.652;9.194;2022-11-15T03:58:56;4.43;;;2.57;;
69410;SDS011;56604;48.652;9.194;2022-11-15T04:01:21;2.00;;;1.90;;
69410;SDS011;56604;48.652;9.194;2022-11-15T04:03:46;2.73;;;2.40;;
69410;SDS011;56604;48.652;9.194;2022-11-15T04:06:11;2.10;;;2.00;;
69410;SDS011;56604;48.652;9.194;2022-11-15T04:08:37;2.20;;;2.10;;
69410;SDS011;56604;48.652;9.194;2022-11-15T04:11:02;6.10;;;2.30;;
69410;SDS011;56604;48.652;9.194;2022-11-15T04:13:27;5.60;;;2.27;;
69410;SDS011;56604;48.652;9.194;2022-11-15T04:15:53;2.43;;;2.03;;
69410;SDS011;56604;48.652;9.194;2022-11-15T04:18:18;2.93;;;2.70;;
69410;SDS011;56604;48.652;9.194;2022-11-15T04:20:43;4.17;;;2.30;;
69410;SDS011;56604;48.652;9.194;2022-11-15T04:23:27;2.73;;;2.10;;
69410;SDS011;56604;48.652;9.194;2022-11-15T04:26:31;2.47;;;2.37;;
69410;SDS011;56604;48.652;9.194;2022-11-15T04:28:56;2.50;;;2.30;;
69410;SDS011;56604;48.652;9.194;2022-11-15T04:31:40;3.27;;;1.97;;
69410;SDS011;56604;48.652;9.194;2022-11-15T04:34:06;2.10;;;1.80;;
69410;SDS011;56604;48.652;9.194;2022-11-15T04:36:31;2.23;;;2.03;;
69410;SDS011;56604;48.652;9.194;2022-11-15T04:39:15;3.33;;;1.77;;
69410;SDS011;56604;48.652;9.194;2022-11-15T04:41:40;2.13;;;1.93;;
69410;SDS011;56604;48.652;9.194;2022-11-15T04:44:06;2.07;;;2.00;;
69410;SDS011;56604;48.652;9.194;2022-11-15T04:46:32;2.40;;;2.30;;
69410;SDS011;56604;48.652;9.194;2022-11-15T04:48:57;1.57;;;1.57;;
69410;SDS011;56604;48.652;9.194;2022-11-15T04:51:23;2.13;;;1.93;;
69410;SDS011;56604;48.652;9.194;2022-11-15T04:53:48;4.30;;;2.57;;
69410;SDS011;56604;48.652;9.194;2022-11-15T04:56:13;3.53;;;2.33;;
69410;SDS011;56604;48.652;9.194;2022-11-15T04:58:38;10.13;;;2.33;;
69410;SDS011;56604;48.652;9.194;2022-11-15T05:01:10;2.47;;;2.30;;
69410;SDS011;56604;48.652;9.194;2022-11-15T05:03:37;1.80;;;1.70;;
69410;SDS011;56604;48.652;9.194;2022-11-15T05:06:21;1.90;;;1.80;;
69410;SDS011;56604;48.652;9.194;2022-11-15T05:08:46;3.37;;;2.00;;
69410;SDS011;56604;48.652;9.194;2022-11-15T05:11:12;2.37;;;2.20;;
69410;SDS011;56604;48.652;9.194;2022-11-15T05:13:37;2.97;;;2.00;;
69410;SDS011;56604;48.652;9.194;2022-11-15T05:16:02;6.83;;;1.73;;
69410;SDS011;56604;48.652;9.194;2022-11-15T05:18:28;2.07;;;1.97;;
69410;SDS011;56604;48.652;9.194;2022-11-15T05:20:53;2.33;;;2.23;;
69410;SDS011;56604;48.652;9.194;2022-11-15T05:23:18;3.53;;;2.53;;
69410;SDS011;56604;48.652;9.194;2022-11-15T05:25:44;2.80;;;2.60;;
69410;SDS011;56604;48.652;9.194;2022-11-15T05:28:09;4.73;;;1.93;;
69410;SDS011;56604;48.652;9.194;2022-11-15T05:30:34;1.83;;;1.73;;
69410;SDS011;56604;48.652;9.194;2022-11-15T05:32:59;2.13;;;2.00;;
69410;SDS011;56604;48.652;9.194;2022-11-15T05:35:32;3.23;;;1.60;;
69410;SDS011;56604;48.652;9.194;2022-11-15T05:38:01;2.30;;;2.10;;
69410;SDS011;56604;48.652;9.194;2022-11-15T05:40:27;2.20;;;2.00;;
69410;SDS011;56604;48.652;9.194;2022-11-15T05:42:55;4.50;;;2.00;;
69410;SDS011;56604;48.652;9.194;2022-11-15T05:45:21;2.10;;;1.93;;
69410;SDS011;56604;48.652;9.194;2022-11-15T05:47:47;2.13;;;2.00;;
69410;SDS011;56604;48.652;9.194;2022-11-15T05:50:14;1.87;;;1.77;;
69410;SDS011;56604;48.652;9.194;2022-11-15T05:52:41;4.63;;;2.33;;
69410;SDS011;56604;48.652;9.194;2022-11-15T05:55:08;2.60;;;2.17;;
69410;SDS011;56604;48.652;9.194;2022-11-15T05:57:34;4.30;;;2.17;;
69410;SDS011;56604;48.652;9.194;2022-11-15T05:59:59;2.13;;;2.03;;
69410;SDS011;56604;48.652;9.194;2022-11-15T06:02:25;5.10;;;2.60;;
69410;SDS011;56604;48.652;9.194;2022-11-15T06:04:50;2.50;;;2.40;;
69410;SDS011;56604;48.652;9.194;2022-11-15T06:07:15;3.70;;;3.50;;
69410;SDS011;56604;48.652;9.194;2022-11-15T06:09:41;8.97;;;3.07;;
69410;SDS011;56604;48.652;9.194;2022-11-15T06:12:06;2.90;;;2.70;;
69410;SDS011;56604;48.652;9.194;2022-11-15T06:14:31;2.70;;;2.30;;
69410;SDS011;56604;48.652;9.194;2022-11-15T06:16:57;3.40;;;2.43;;
69410;SDS011;56604;48.652;9.194;2022-11-15T06:19:22;67.53;;;20.23;;
69410;SDS011;56604;48.652;9.194;2022-11-15T06:21:47;8.43;;;6.53;;
69410;SDS011;56604;48.652;9.194;2022-11-15T06:24:13;3.47;;;2.43;;
69410;SDS011;56604;48.652;9.194;2022-11-15T06:26:38;4.80;;;2.43;;
69410;SDS011;56604;48.652;9.194;2022-11-15T06:29:03;7.10;;;5.10;;
69410;SDS011;56604;48.652;9.194;2022-11-15T06:31:29;34.13;;;24.63;;
69410;SDS011;56604;48.652;9.194;2022-11-15T06:33:55;15.43;;;10.07;;
69410;SDS011;56604;48.652;9.194;2022-11-15T06:36:20;5.87;;;4.33;;
69410;SDS011;56604;48.652;9.194;2022-11-15T06:38:46;20.00;;;14.83;;
69410;SDS011;56604;48.652;9.194;2022-11-15T06:41:12;3.93;;;3.50;;
69410;SDS011;56604;48.652;9.194;2022-11-15T06:43:38;7.03;;;3.70;;
69410;SDS011;56604;48.652;9.194;2022-11-15T06:46:04;4.47;;;2.03;;
69410;SDS011;56604;48.652;9.194;2022-11-15T06:48:31;3.60;;;3.30;;
69410;SDS011;56604;48.652;9.194;2022-11-15T06:50:58;5.80;;;2.37;;
69410;SDS011;56604;48.652;9.194;2022-11-15T06:53:24;2.87;;;2.67;;
69410;SDS011;56604;48.652;9.194;2022-11-15T06:55:50;2.70;;;2.10;;
69410;SDS011;56604;48.652;9.194;2022-11-15T06:58:16;4.27;;;2.50;;
69410;SDS011;56604;48.652;9.194;2022-11-15T07:00:41;4.83;;;3.83;;
69410;SDS011;56604;48.652;9.194;2022-11-15T07:03:07;4.53;;;2.50;;
69410;SDS011;56604;48.652;9.194;2022-11-15T07:05:32;5.10;;;2.57;;
69410;SDS011;56604;48.652;9.194;2022-11-15T07:07:58;9.20;;;2.30;;
69410;SDS011;56604;48.652;9.194;2022-11-15T07:10:24;4.40;;;2.50;;
69410;SDS011;56604;48.652;9.194;2022-11-15T07:12:51;5.73;;;2.90;;
69410;SDS011;56604;48.652;9.194;2022-11-15T07:15:17;2.90;;;2.80;;
69410;SDS011;56604;48.652;9.194;2022-11-15T07:17:44;3.10;;;2.80;;
69410;SDS011;56604;48.652;9.194;2022-11-15T07:20:09;3.80;;;3.10;;
69410;SDS011;56604;48.652;9.194;2022-11-15T07:22:35;5.00;;;2.23;;
69410;SDS011;56604;48.652;9.194;2022-11-15T07:25:01;8.13;;;2.90;;
69410;SDS011;56604;48.652;9.194;2022-11-15T07:27:26;7.30;;;2.60;;
69410;SDS011;56604;48.652;9.194;2022-11-15T07:29:52;5.30;;;2.47;;
69410;SDS011;56604;48.652;9.194;2022-11-15T07:32:17;2.77;;;2.43;;
69410;SDS011;56604;48.652;9.194;2022-11-15T07:34:42;4.10;;;2.43;;
69410;SDS011;56604;48.652;9.194;2022-11-15T07:37:08;2.27;;;2.17;;
69410;SDS011;56604;48.652;9.194;2022-11-15T07:39:33;2.83;;;2.63;;
69410;SDS011;56604;48.652;9.194;2022-11-15T07:41:59;2.30;;;2.20;;
69410;SDS011;56604;48.652;9.194;2022-11-15T07:44:43;3.40;;;1.80;;
69410;SDS011;56604;48.652;9.194;2022-11-15T07:47:08;2.37;;;2.20;;
69410;SDS011;56604;48.652;9.194;2022-11-15T07:49:34;2.00;;;1.90;;
69410;SDS011;56604;48.652;9.194;2022-11-15T07:51:59;2.30;;;1.87;;
69410;SDS011;56604;48.652;9.194;2022-11-15T07:54:24;4.13;;;2.67;;
69410;SDS011;56604;48.652;9.194;2022-11-15T07:56:50;9.47;;;5.93;;
69410;SDS011;56604;48.652;9.194;2022-11-15T07:59:15;11.93;;;6.33;;
69410;SDS011;56604;48.652;9.194;2022-11-15T08:01:40;20.40;;;8.07;;
69410;SDS011;56604;48.652;9.194;2022-11-15T08:04:06;11.10;;;7.17;;
69410;SDS011;56604;48.652;9.194;2022-11-15T08:06:31;14.60;;;7.80;;
69410;SDS011;56604;48.652;9.194;2022-11-15T08:08:56;12.03;;;6.80;;
69410;SDS011;56604;48.652;9.194;2022-11-15T08:11:22;10.67;;;5.80;;
69410;SDS011;56604;48.652;9.194;2022-11-15T08:13:47;3.50;;;3.20;;
69410;SDS011;56604;48.652;9.194;2022-11-15T08:16:12;5.00;;;3.60;;
69410;SDS011;56604;48.652;9.194;2022-11-15T08:18:37;10.70;;;7.23;;
69410;SDS011;56604;48.652;9.194;2022-11-15T08:21:03;14.23;;;5.40;;
69410;SDS011;56604;48.652;9.194;2022-11-15T08:23:29;10.53;;;4.10;;
69410;SDS011;56604;48.652;9.194;2022-11-15T08:26:04;4.67;;;3.80;;
69410;SDS011;56604;48.652;9.194;2022-11-15T08:28:30;6.87;;;3.90;;
69410;SDS011;56604;48.652;9.194;2022-11-15T08:30:56;7.40;;;3.20;;
69410;SDS011;56604;48.652;9.194;2022-11-15T08:33:22;6.00;;;2.97;;
69410;SDS011;56604;48.652;9.194;2022-11-15T08:35:48;3.30;;;3.00;;
69410;SDS011;56604;48.652;9.194;2022-11-15T08:38:13;3.20;;;2.90;;
69410;SDS011;56604;48.652;9.194;2022-11-15T08:40:39;5.03;;;2.33;;
69410;SDS011;56604;48.652;9.194;2022-11-15T08:43:04;4.57;;;2.57;;
69410;SDS011;56604;48.652;9.194;2022-11-15T08:45:30;2.27;;;2.17;;
69410;SDS011;56604;48.652;9.194;2022-11-15T08:47:55;2.70;;;2.50;;
69410;SDS011;56604;48.652;9.194;2022-11-15T08:50:22;2.73;;;2.47;;
69410;SDS011;56604;48.652;9.194;2022-11-15T08:52:47;3.00;;;2.50;;
69410;SDS011;56604;48.652;9.194;2022-11-15T08:55:15;4.17;;;2.30;;
69410;SDS011;56604;48.652;9.194;2022-11-15T08:57:41;3.67;;;2.40;;
69410;SDS011;56604;48.652;9.194;2022-11-15T09:00:06;2.73;;;2.00;;
69410;SDS011;56604;48.652;9.194;2022-11-15T09:02:32;4.60;;;2.30;;
69410;SDS011;56604;48.652;9.194;2022-11-15T09:04:57;2.20;;;2.10;;
69410;SDS011;56604;48.652;9.194;2022-11-15T09:07:22;4.17;;;2.10;;
69410;SDS011;56604;48.652;9.194;2022-11-15T09:09:48;2.47;;;2.30;;
69410;SDS011;56604;48.652;9.194;2022-11-15T09:12:14;7.90;;;1.80;;
69410;SDS011;56604;48.652;9.194;2022-11-15T09:14:39;2.50;;;1.87;;
69410;SDS011;56604;48.652;9.194;2022-11-15T09:17:07;3.90;;;2.10;;
69410;SDS011;56604;48.652;9.194;2022-11-15T09:19:33;4.30;;;2.10;;
69410;SDS011;56604;48.652;9.194;2022-11-15T09:21:59;2.53;;;2.20;;
69410;SDS011;56604;48.652;9.194;2022-11-15T09:24:24;6.20;;;4.30;;
69410;SDS011;56604;48.652;9.194;2022-11-15T09:26:50;4.00;;;2.30;;
69410;SDS011;56604;48.652;9.194;2022-11-15T09:29:16;4.90;;;2.03;;
69410;SDS011;56604;48.652;9.194;2022-11-15T09:31:42;11.90;;;7.40;;
69410;SDS011;56604;48.652;9.194;2022-11-15T09:34:07;2.23;;;2.00;;
69410;SDS011;56604;48.652;9.194;2022-11-15T09:36:33;6.57;;;2.30;;
69410;SDS011;56604;48.652;9.194;2022-11-15T09:38:58;2.70;;;1.90;;
69410;SDS011;56604;48.652;9.194;2022-11-15T09:41:38;2.70;;;2.33;;
69410;SDS011;56604;48.652;9.194;2022-11-15T09:49:20;11.73;;;2.37;;
69410;SDS011;56604;48.652;9.194;2022-11-15T09:51:47;14.07;;;2.57;;
69410;SDS011;56604;48.652;9.194;2022-11-15T09:56:56;45.37;;;5.33;;
69410;SDS011;56604;48.652;9.194;2022-11-15T10:05:07;37.63;;;4.07;;
69410;SDS011;56604;48.652;9.194;2022-11-15T10:12:50;11.93;;;2.03;;
69410;SDS011;56604;48.652;9.194;2022-11-15T10:15:18;12.90;;;2.70;;
69410;SDS011;56604;48.652;9.194;2022-11-15T10:20:32;12.80;;;2.50;;
69410;SDS011;56604;48.652;9.194;2022-11-15T10:23:13;4.10;;;2.57;;
69410;SDS011;56604;48.652;9.194;2022-11-15T10:25:41;2.43;;;2.00;;
69410;SDS011;56604;48.652;9.194;2022-11-15T10:28:11;1.93;;;1.73;;
69410;SDS011;56604;48.652;9.194;2022-11-15T10:30:45;5.17;;;1.70;;
69410;SDS011;56604;48.652;9.194;2022-11-15T10:33:18;3.47;;;2.33;;
69410;SDS011;56604;48.652;9.194;2022-11-15T10:35:49;2.43;;;2.23;;
69410;SDS011;56604;48.652;9.194;2022-11-15T10:41:15;2.97;;;2.30;;
69410;SDS011;56604;48.652;9.194;2022-11-15T10:46:44;3.10;;;2.00;;
69410;SDS011;56604;48.652;9.194;2022-11-15T10:51:48;2.60;;;2.40;;
69410;SDS011;56604;48.652;9.194;2022-11-15T10:56:50;3.17;;;2.47;;
69410;SDS011;56604;48.652;9.194;2022-11-15T10:59:22;3.33;;;2.40;;
69410;SDS011;56604;48.652;9.194;2022-11-15T11:01:51;6.50;;;2.53;;
69410;SDS011;56604;48.652;9.194;2022-11-15T11:04:16;2.50;;;2.30;;
69410;SDS011;56604;48.652;9.194;2022-11-15T11:06:50;3.50;;;2.80;;
69410;SDS011;56604;48.652;9.194;2022-11-15T11:09:21;4.83;;;2.50;;
69410;SDS011;56604;48.652;9.194;2022-11-15T11:11:51;5.50;;;3.17;;
69410;SDS011;56604;48.652;9.194;2022-11-15T11:14:21;6.27;;;2.80;;
69410;SDS011;56604;48.652;9.194;2022-11-15T11:22:14;3.80;;;2.40;;
69410;SDS011;56604;48.652;9.194;2022-11-15T11:24:56;3.10;;;2.70;;
69410;SDS011;56604;48.652;9.194;2022-11-15T11:33:38;2.90;;;2.40;;
69410;SDS011;56604;48.652;9.194;2022-11-15T11:41:43;6.63;;;2.23;;
69410;SDS011;56604;48.652;9.194;2022-11-15T11:47:23;2.60;;;2.20;;
69410;SDS011;56604;48.652;9.194;2022-11-15T11:50:10;3.33;;;2.47;;
69410;SDS011;56604;48.652;9.194;2022-11-15T11:52:41;5.13;;;2.17;;
69410;SDS011;56604;48.652;9.194;2022-11-15T11:58:08;4.70;;;1.80;;
69410;SDS011;56604;48.652;9.194;2022-11-15T12:00:38;3.17;;;1.67;;
69410;SDS011;56604;48.652;9.194;2022-11-15T12:03:14;2.03;;;1.93;;
69410;SDS011;56604;48.652;9.194;2022-11-15T12:05:54;4.03;;;2.13;;
69410;SDS011;56604;48.652;9.194;2022-11-15T12:13:44;2.67;;;2.47;;
69410;SDS011;56604;48.652;9.194;2022-11-15T12:16:18;2.50;;;2.30;;
69410;SDS011;56604;48.652;9.194;2022-11-15T12:18:49;8.43;;;2.20;;
69410;SDS011;56604;48.652;9.194;2022-11-15T12:23:59;1.80;;;1.70;;
69410;SDS011;56604;48.652;9.194;2022-11-15T12:26:34;7.07;;;2.10;;
69410;SDS011;56604;48.652;9.194;2022-11-15T12:29:09;3.60;;;2.93;;
69410;SDS011;56604;48.652;9.194;2022-11-15T12:31:41;4.83;;;3.60;;
69410;SDS011;56604;48.652;9.194;2022-11-15T12:34:28;6.33;;;4.23;;
69410;SDS011;56604;48.652;9.194;2022-11-15T12:37:01;5.23;;;3.40;;
69410;SDS011;56604;48.652;9.194;2022-11-15T12:42:35;7.50;;;3.70;;
69410;SDS011;56604;48.652;9.194;2022-11-15T12:45:23;6.80;;;3.87;;
69410;SDS011;56604;48.652;9.194;2022-11-15T12:47:55;3.20;;;3.00;;
69410;SDS011;56604;48.652;9.194;2022-11-15T13:06:44;5.17;;;2.80;;
69410;SDS011;56604;48.652;9.194;2022-11-15T13:11:54;6.70;;;3.93;;
69410;SDS011;56604;48.652;9.194;2022-11-15T13:19:48;6.57;;;4.87;;
69410;SDS011;56604;48.652;9.194;2022-11-15T13:22:20;6.43;;;4.17;;
69410;SDS011;56604;48.652;9.194;2022-11-15T13:25:04;5.27;;;4.37;;
69410;SDS011;56604;48.652;9.194;2022-11-15T13:27:40;10.30;;;5.43;;
69410;SDS011;56604;48.652;9.194;2022-11-15T13:30:12;8.30;;;4.60;;
69410;SDS011;56604;48.652;9.194;2022-11-15T13:32:41;10.63;;;4.67;;
69410;SDS011;56604;48.652;9.194;2022-11-15T13:35:06;7.50;;;4.47;;
69410;SDS011;56604;48.652;9.194;2022-11-15T13:37:32;4.90;;;4.50;;
69410;SDS011;56604;48.652;9.194;2022-11-15T13:42:49;8.83;;;4.40;;
69410;SDS011;56604;48.652;9.194;2022-11-15T13:45:16;6.47;;;3.60;;
69410;SDS011;56604;48.652;9.194;2022-11-15T13:47:42;5.80;;;3.63;;
69410;SDS011;56604;48.652;9.194;2022-11-15T13:50:11;6.57;;;3.63;;
69410;SDS011;56604;48.652;9.194;2022-11-15T13:52:38;5.47;;;4.10;;
69410;SDS011;56604;48.652;9.194;2022-11-15T13:55:18;7.20;;;4.70;;
69410;SDS011;56604;48.652;9.194;2022-11-15T14:03:23;5.50;;;4.80;;
69410;SDS011;56604;48.652;9.194;2022-11-15T14:06:02;8.83;;;5.10;;
69410;SDS011;56604;48.652;9.194;2022-11-15T14:08:28;5.60;;;3.80;;
69410;SDS011;56604;48.652;9.194;2022-11-15T14:13:38;12.00;;;8.70;;
69410;SDS011;56604;48.652;9.194;2022-11-15T14:16:15;14.43;;;8.90;;
69410;SDS011;56604;48.652;9.194;2022-11-15T14:18:49;16.50;;;7.97;;
69410;SDS011;56604;48.652;9.194;2022-11-15T14:21:16;14.20;;;8.10;;
69410;SDS011;56604;48.652;9.194;2022-11-15T14:23:43;12.53;;;7.47;;
69410;SDS011;56604;48.652;9.194;2022-11-15T14:26:29;8.10;;;5.80;;
69410;SDS011;56604;48.652;9.194;2022-11-15T14:29:20;6.77;;;5.00;;
69410;SDS011;56604;48.652;9.194;2022-11-15T14:34:45;8.27;;;4.30;;
69410;SDS011;56604;48.652;9.194;2022-11-15T14:37:16;12.33;;;4.20;;
69410;SDS011;56604;48.652;9.194;2022-11-15T14:39:45;8.13;;;4.23;;
69410;SDS011;56604;48.652;9.194;2022-11-15T14:42:11;7.20;;;4.47;;
69410;SDS011;56604;48.652;9.194;2022-11-15T14:44:36;5.00;;;3.80;;
69410;SDS011;56604;48.652;9.194;2022-11-15T14:47:02;19.63;;;5.00;;
69410;SDS011;56604;48.652;9.194;2022-11-15T14:49:27;14.13;;;4.30;;
69410;SDS011;56604;48.652;9.194;2022-11-15T14:51:53;9.53;;;4.70;;
69410;SDS011;56604;48.652;9.194;2022-11-15T14:54:18;5.27;;;4.77;;
69410;SDS011;56604;48.652;9.194;2022-11-15T14:56:43;4.83;;;4.30;;
69410;SDS011;56604;48.652;9.194;2022-11-15T14:59:08;10.80;;;4.40;;
69410;SDS011;56604;48.652;9.194;2022-11-15T15:01:34;9.63;;;5.40;;
69410;SDS011;56604;48.652;9.194;2022-11-15T15:03:59;8.87;;;5.23;;
69410;SDS011;56604;48.652;9.194;2022-11-15T15:06:24;8.10;;;5.27;;
69410;SDS011;56604;48.652;9.194;2022-11-15T15:08:50;21.33;;;5.10;;
69410;SDS011;56604;48.652;9.194;2022-11-15T15:11:18;4.30;;;3.90;;
69410;SDS011;56604;48.652;9.194;2022-11-15T15:13:46;8.03;;;5.13;;
69410;SDS011;56604;48.652;9.194;2022-11-15T15:16:12;6.50;;;5.23;;
69410;SDS011;56604;48.652;9.194;2022-11-15T15:18:37;6.33;;;4.40;;
69410;SDS011;56604;48.652;9.194;2022-11-15T15:21:04;7.07;;;4.83;;
69410;SDS011;56604;48.652;9.194;2022-11-15T15:23:44;7.13;;;4.97;;
69410;SDS011;56604;48.652;9.194;2022-11-15T15:26:09;9.17;;;4.93;;
69410;SDS011;56604;48.652;9.194;2022-11-15T15:28:34;13.23;;;4.60;;
69410;SDS011;56604;48.652;9.194;2022-11-15T15:31:00;11.60;;;5.73;;
69410;SDS011;56604;48.652;9.194;2022-11-15T15:33:26;30.20;;;6.67;;
69410;SDS011;56604;48.652;9.194;2022-11-15T15:35:51;37.03;;;8.13;;
69410;SDS011;56604;48.652;9.194;2022-11-15T15:38:18;17.53;;;6.60;;
69410;SDS011;56604;48.652;9.194;2022-11-15T15:40:43;14.53;;;5.83;;
69410;SDS011;56604;48.652;9.194;2022-11-15T15:43:09;8.43;;;5.60;;
69410;SDS011;56604;48.652;9.194;2022-11-15T15:45:36;10.37;;;5.43;;
69410;SDS011;56604;48.652;9.194;2022-11-15T15:48:03;19.00;;;5.90;;
69410;SDS011;56604;48.652;9.194;2022-11-15T15:50:29;8.63;;;5.73;;
69410;SDS011;56604;48.652;9.194;2022-11-15T15:52:58;18.00;;;5.97;;
69410;SDS011;56604;48.652;9.194;2022-11-15T15:55:25;27.83;;;14.43;;
69410;SDS011;56604;48.652;9.194;2022-11-15T15:57:51;17.57;;;10.60;;
69410;SDS011;56604;48.652;9.194;2022-11-15T16:00:17;28.67;;;17.77;;
69410;SDS011;56604;48.652;9.194;2022-11-15T16:02:43;29.63;;;17.10;;
69410;SDS011;56604;48.652;9.194;2022-11-15T16:05:09;16.13;;;7.90;;
69410;SDS011;56604;48.652;9.194;2022-11-15T16:07:36;17.80;;;9.50;;
69410;SDS011;56604;48.652;9.194;2022-11-15T16:10:04;9.87;;;8.00;;
69410;SDS011;56604;48.652;9.194;2022-11-15T16:12:41;15.50;;;9.23;;
69410;SDS011;56604;48.652;9.194;2022-11-15T16:15:07;16.90;;;7.87;;
69410;SDS011;56604;48.652;9.194;2022-11-15T16:17:33;10.87;;;6.00;;
69410;SDS011;56604;48.652;9.194;2022-11-15T16:20:02;6.00;;;5.40;;
69410;SDS011;56604;48.652;9.194;2022-11-15T16:22:28;13.13;;;5.63;;
69410;SDS011;56604;48.652;9.194;2022-11-15T16:24:54;24.83;;;5.80;;
69410;SDS011;56604;48.652;9.194;2022-11-15T16:27:19;12.83;;;6.40;;
69410;SDS011;56604;48.652;9.194;2022-11-15T16:29:47;16.87;;;6.83;;
69410;SDS011;56604;48.652;9.194;2022-11-15T16:32:12;9.23;;;7.00;;
69410;SDS011;56604;48.652;9.194;2022-11-15T16:34:38;9.30;;;6.37;;
69410;SDS011;56604;48.652;9.194;2022-11-15T16:37:04;8.30;;;6.53;;
69410;SDS011;56604;48.652;9.194;2022-11-15T16:39:31;10.90;;;6.60;;
69410;SDS011;56604;48.652;9.194;2022-11-15T16:41:57;7.13;;;5.30;;
69410;SDS011;56604;48.652;9.194;2022-11-15T16:44:23;9.00;;;4.83;;
69410;SDS011;56604;48.652;9.194;2022-11-15T16:46:50;4.80;;;3.97;;
69410;SDS011;56604;48.652;9.194;2022-11-15T16:49:16;3.90;;;3.60;;
69410;SDS011;56604;48.652;9.194;2022-11-15T16:51:46;6.93;;;3.33;;
69410;SDS011;56604;48.652;9.194;2022-11-15T16:54:13;6.50;;;3.90;;
69410;SDS011;56604;48.652;9.194;2022-11-15T16:56:39;7.10;;;4.30;;
69410;SDS011;56604;48.652;9.194;2022-11-15T16:59:05;5.70;;;3.40;;
69410;SDS011;56604;48.652;9.194;2022-11-15T17:01:32;4.00;;;3.70;;
69410;SDS011;56604;48.652;9.194;2022-11-15T17:04:00;3.17;;;2.97;;
69410;SDS011;56604;48.652;9.194;2022-11-15T17:06:37;3.23;;;2.93;;
69410;SDS011;56604;48.652;9.194;2022-11-15T17:09:04;3.40;;;3.10;;
69410;SDS011;56604;48.652;9.194;2022-11-15T17:11:30;6.10;;;4.80;;
69410;SDS011;56604;48.652;9.194;2022-11-15T17:13:59;3.83;;;2.90;;